createdAt,value
2023-04-23T00:00:25.718Z,8.37
2023-04-23T00:02:54.601Z,7.30
2023-04-23T00:05:23.507Z,6.47
2023-04-23T00:07:50.617Z,8.07
2023-04-23T00:10:18.439Z,6.80
2023-04-23T00:12:46.069Z,6.00
2023-04-23T00:15:14.337Z,6.47
2023-04-23T00:17:41.227Z,5.87
2023-04-23T00:20:09.427Z,6.70
2023-04-23T00:22:36.365Z,7.60
2023-04-23T00:25:03.550Z,6.33
2023-04-23T00:27:30.587Z,6.70
2023-04-23T00:29:57.480Z,6.80
2023-04-23T00:32:24.678Z,5.13
2023-04-23T00:34:51.992Z,5.80
2023-04-23T00:37:18.808Z,6.60
2023-04-23T00:39:45.829Z,6.53
2023-04-23T00:42:14.120Z,5.73
2023-04-23T00:44:44.505Z,6.23
2023-04-23T00:47:12.522Z,7.20
2023-04-23T00:49:39.706Z,5.43
2023-04-23T00:52:06.969Z,5.43
2023-04-23T00:54:34.266Z,6.57
2023-04-23T00:57:02.175Z,5.17
2023-04-23T00:59:29.749Z,6.73
2023-04-23T01:01:56.755Z,7.90
2023-04-23T01:04:28.000Z,6.20
2023-04-23T01:06:56.100Z,4.93
2023-04-23T01:09:24.124Z,5.97
2023-04-23T01:11:51.762Z,9.50
2023-04-23T01:14:19.101Z,6.23
2023-04-23T01:16:47.273Z,6.83
2023-04-23T01:19:16.337Z,7.13
2023-04-23T01:21:43.301Z,6.57
2023-04-23T01:24:11.703Z,5.97
2023-04-23T01:26:39.992Z,6.93
2023-04-23T01:29:07.559Z,6.60
2023-04-23T01:31:34.874Z,6.70
2023-04-23T01:34:02.203Z,6.63
2023-04-23T01:36:30.027Z,6.53
2023-04-23T01:38:57.463Z,8.33
2023-04-23T01:41:24.356Z,8.90
2023-04-23T01:43:51.360Z,6.13
2023-04-23T01:46:18.414Z,6.27
2023-04-23T01:48:45.433Z,8.43
2023-04-23T01:51:12.322Z,6.47
2023-04-23T01:53:39.174Z,7.83
2023-04-23T01:56:10.009Z,7.23
2023-04-23T01:58:37.028Z,7.43
2023-04-23T02:01:03.884Z,7.23
2023-04-23T02:03:32.378Z,10.20
2023-04-23T02:06:00.381Z,7.93
2023-04-23T02:08:28.510Z,6.90
2023-04-23T02:10:55.401Z,7.40
2023-04-23T02:13:22.504Z,7.20
2023-04-23T02:15:49.559Z,6.37
2023-04-23T02:18:17.066Z,7.07
2023-04-23T02:20:44.279Z,10.03
2023-04-23T02:23:12.356Z,8.00
2023-04-23T02:25:39.501Z,6.80
2023-04-23T02:28:07.955Z,7.20
2023-04-23T02:30:35.607Z,6.23
2023-04-23T02:33:04.061Z,7.03
2023-04-23T02:35:31.663Z,7.40
2023-04-23T02:37:58.650Z,7.10
2023-04-23T02:40:25.586Z,6.80
2023-04-23T02:42:52.497Z,6.50
2023-04-23T02:45:19.358Z,7.63
2023-04-23T02:47:46.202Z,6.57
2023-04-23T02:50:13.279Z,8.40
2023-04-23T02:52:40.201Z,6.77
2023-04-23T02:55:07.974Z,6.60
2023-04-23T02:57:35.073Z,8.70
2023-04-23T03:00:02.008Z,6.97
2023-04-23T03:02:35.961Z,6.83
2023-04-23T03:05:03.849Z,7.00
2023-04-23T03:07:30.828Z,6.97
2023-04-23T03:09:58.193Z,6.90
2023-04-23T03:12:25.262Z,7.27
2023-04-23T03:14:52.136Z,12.00
2023-04-23T03:17:20.171Z,8.77
2023-04-23T03:19:49.058Z,6.93
2023-04-23T03:22:16.142Z,11.07
2023-04-23T03:24:43.322Z,7.93
2023-04-23T03:27:10.510Z,6.80
2023-04-23T03:29:37.359Z,7.00
2023-04-23T03:32:04.392Z,7.17
2023-04-23T03:34:31.711Z,7.70
2023-04-23T03:36:58.753Z,6.50
2023-04-23T03:39:25.860Z,7.00
2023-04-23T03:41:54.662Z,6.30
2023-04-23T03:44:25.491Z,6.10
2023-04-23T03:46:52.683Z,7.70
2023-04-23T03:49:20.901Z,6.50
2023-04-23T03:51:47.821Z,7.70
2023-04-23T03:54:15.619Z,8.37
2023-04-23T03:56:53.300Z,6.77
2023-04-23T03:59:26.809Z,6.27
2023-04-23T04:01:56.192Z,6.77
2023-04-23T04:04:25.588Z,7.60
2023-04-23T04:06:52.680Z,7.50
2023-04-23T04:09:19.595Z,6.80
2023-04-23T04:11:46.476Z,7.17
2023-04-23T04:14:13.502Z,7.30
2023-04-23T04:16:41.086Z,10.60
2023-04-23T04:19:08.034Z,6.83
2023-04-23T04:21:34.866Z,8.13
2023-04-23T04:24:07.974Z,6.63
2023-04-23T04:26:35.078Z,5.80
2023-04-23T04:29:02.065Z,5.80
2023-04-23T04:31:29.310Z,6.57
2023-04-23T04:33:56.207Z,8.73
2023-04-23T04:36:25.424Z,6.13
2023-04-23T04:38:52.285Z,8.30
2023-04-23T04:41:20.256Z,5.67
2023-04-23T04:43:48.616Z,6.53
2023-04-23T04:46:15.826Z,7.53
2023-04-23T04:48:42.677Z,6.43
2023-04-23T04:51:09.501Z,7.20
2023-04-23T04:53:36.363Z,7.80
2023-04-23T04:56:03.243Z,7.00
2023-04-23T04:58:30.120Z,11.47
2023-04-23T05:00:57.035Z,6.60
2023-04-23T05:03:24.066Z,7.17
2023-04-23T05:05:50.974Z,6.43
2023-04-23T05:08:21.583Z,6.87
2023-04-23T05:10:50.658Z,7.23
2023-04-23T05:13:18.084Z,7.23
2023-04-23T05:15:46.464Z,7.13
2023-04-23T05:18:13.292Z,7.43
2023-04-23T05:20:40.254Z,8.13
2023-04-23T05:23:07.131Z,7.50
2023-04-23T05:25:34.837Z,7.60
2023-04-23T05:28:01.834Z,7.47
2023-04-23T05:30:28.851Z,7.57
2023-04-23T05:32:55.733Z,7.13
2023-04-23T05:35:22.672Z,8.40
2023-04-23T05:37:49.533Z,7.37
2023-04-23T05:40:16.436Z,7.90
2023-04-23T05:42:43.264Z,7.93
2023-04-23T05:45:10.538Z,8.57
2023-04-23T05:47:37.558Z,11.30
2023-04-23T05:50:05.785Z,6.50
2023-04-23T05:52:33.773Z,6.07
2023-04-23T05:55:00.624Z,5.87
2023-04-23T05:57:27.444Z,4.47
2023-04-23T05:59:54.287Z,5.97
2023-04-23T06:02:23.955Z,5.17
2023-04-23T06:04:52.681Z,5.30
2023-04-23T06:07:20.031Z,5.20
2023-04-23T06:09:46.937Z,5.43
2023-04-23T06:12:13.778Z,4.10
2023-04-23T06:14:41.148Z,4.50
2023-04-23T06:17:08.219Z,3.67
2023-04-23T06:19:35.075Z,5.10
2023-04-23T06:22:02.058Z,3.63
2023-04-23T06:24:28.909Z,3.97
2023-04-23T06:26:56.435Z,3.67
2023-04-23T06:29:24.466Z,3.40
2023-04-23T06:32:01.533Z,3.77
2023-04-23T06:34:28.376Z,4.47
2023-04-23T06:36:55.438Z,3.57
2023-04-23T06:39:22.361Z,3.80
2023-04-23T06:41:49.253Z,3.30
2023-04-23T06:44:22.511Z,5.20
2023-04-23T06:46:52.371Z,5.07
2023-04-23T06:49:19.223Z,4.90
2023-04-23T06:51:46.205Z,4.87
2023-04-23T06:54:13.174Z,4.13
2023-04-23T06:56:40.034Z,3.90
2023-04-23T06:59:06.998Z,4.37
2023-04-23T07:01:36.463Z,3.83
2023-04-23T07:04:03.347Z,4.83
2023-04-23T07:06:30.227Z,4.43
2023-04-23T07:08:57.075Z,5.37
2023-04-23T07:11:24.258Z,4.67
2023-04-23T07:13:51.132Z,3.57
2023-04-23T07:16:20.407Z,5.23
2023-04-23T07:18:49.289Z,6.83
2023-04-23T07:21:16.251Z,4.67
2023-04-23T07:23:43.131Z,4.33
2023-04-23T07:26:09.935Z,4.67
2023-04-23T07:28:36.763Z,6.00
2023-04-23T07:31:03.675Z,5.70
2023-04-23T07:33:30.527Z,4.00
2023-04-23T07:35:57.327Z,3.97
2023-04-23T07:38:24.170Z,3.77
2023-04-23T07:40:51.146Z,5.07
2023-04-23T07:43:18.097Z,3.90
2023-04-23T07:45:45.015Z,5.13
2023-04-23T07:48:12.188Z,5.97
2023-04-23T07:50:39.108Z,5.63
2023-04-23T07:53:05.964Z,5.10
2023-04-23T07:55:32.816Z,3.93
2023-04-23T07:58:00.172Z,4.10
2023-04-23T08:00:27.126Z,10.63
2023-04-23T08:02:54.235Z,5.87
2023-04-23T08:05:21.552Z,6.00
2023-04-23T08:07:48.430Z,4.80
2023-04-23T08:10:15.341Z,4.53
2023-04-23T08:12:42.341Z,6.93
2023-04-23T08:15:09.863Z,4.40
2023-04-23T08:17:40.825Z,3.63
2023-04-23T08:20:08.541Z,4.60
2023-04-23T08:22:35.452Z,4.23
2023-04-23T08:25:02.394Z,4.57
2023-04-23T08:27:29.509Z,5.20
2023-04-23T08:30:12.362Z,4.30
2023-04-23T08:32:41.012Z,4.60
2023-04-23T08:35:08.551Z,5.10
2023-04-23T08:37:35.524Z,4.13
2023-04-23T08:40:02.392Z,4.70
2023-04-23T08:42:38.312Z,4.83
2023-04-23T08:45:06.096Z,5.00
2023-04-23T08:47:34.009Z,6.03
2023-04-23T08:50:01.759Z,7.60
2023-04-23T08:52:33.756Z,7.40
2023-04-23T08:55:04.952Z,23.33
2023-04-23T08:57:31.993Z,10.00
2023-04-23T09:00:05.828Z,5.07
2023-04-23T09:02:35.156Z,5.30
2023-04-23T09:05:04.691Z,10.80
2023-04-23T09:07:31.713Z,6.07
2023-04-23T09:09:58.825Z,8.20
2023-04-23T09:12:26.097Z,4.53
2023-04-23T09:14:56.658Z,5.27
2023-04-23T09:17:24.724Z,4.70
2023-04-23T09:19:54.306Z,4.60
2023-04-23T09:22:47.644Z,3.80
2023-04-23T09:25:22.865Z,7.47
2023-04-23T09:27:51.792Z,6.33
2023-04-23T09:30:20.273Z,8.07
2023-04-23T09:32:47.782Z,4.83
2023-04-23T09:35:17.835Z,4.57
2023-04-23T09:37:49.709Z,5.23
2023-04-23T09:40:20.644Z,5.93
2023-04-23T09:42:50.170Z,3.73
2023-04-23T09:45:17.637Z,3.90
2023-04-23T09:47:56.087Z,4.53
2023-04-23T09:50:39.418Z,4.03
2023-04-23T09:53:08.423Z,4.10
2023-04-23T09:55:39.321Z,3.40
2023-04-23T09:58:11.044Z,4.73
2023-04-23T10:00:40.116Z,4.50
2023-04-23T10:03:09.143Z,4.80
2023-04-23T10:08:14.238Z,3.27
2023-04-23T10:10:55.122Z,4.70
2023-04-23T10:13:28.811Z,4.90
2023-04-23T10:15:59.037Z,3.73
2023-04-23T10:18:33.228Z,3.17
2023-04-23T10:21:02.993Z,2.70
2023-04-23T10:23:30.818Z,4.17
2023-04-23T10:25:59.612Z,3.70
2023-04-23T10:28:32.167Z,4.10
2023-04-23T10:31:00.058Z,3.00
2023-04-23T10:33:31.714Z,4.53
2023-04-23T10:36:00.588Z,3.60
2023-04-23T10:38:28.596Z,3.47
2023-04-23T10:40:58.490Z,3.33
2023-04-23T10:43:25.577Z,3.73
2023-04-23T10:45:52.658Z,3.77
2023-04-23T10:48:20.922Z,3.83
2023-04-23T10:51:06.877Z,2.97
2023-04-23T10:53:36.499Z,3.47
2023-04-23T10:56:07.963Z,3.70
2023-04-23T10:58:52.063Z,3.00
2023-04-23T11:01:19.875Z,3.50
2023-04-23T11:03:48.176Z,2.93
2023-04-23T11:06:39.688Z,4.40
2023-04-23T11:09:35.110Z,3.20
2023-04-23T11:12:03.300Z,3.10
2023-04-23T11:14:45.909Z,4.13
2023-04-23T11:17:14.292Z,3.50
2023-04-23T11:19:42.993Z,6.03
2023-04-23T11:22:15.451Z,4.93
2023-04-23T11:24:44.979Z,3.37
2023-04-23T11:27:17.556Z,2.67
2023-04-23T11:29:46.753Z,4.67
2023-04-23T11:32:16.985Z,4.20
2023-04-23T11:34:45.768Z,3.80
2023-04-23T11:37:15.648Z,4.20
2023-04-23T11:39:44.668Z,4.03
2023-04-23T11:42:13.381Z,3.73
2023-04-23T11:44:44.854Z,3.90
2023-04-23T11:47:13.459Z,2.63
2023-04-23T11:49:45.490Z,3.33
2023-04-23T11:52:13.205Z,3.40
2023-04-23T11:54:41.583Z,3.77
2023-04-23T11:57:08.823Z,3.03
2023-04-23T11:59:35.828Z,3.00
2023-04-23T12:02:02.761Z,4.17
2023-04-23T12:04:31.420Z,2.80
2023-04-23T12:06:59.522Z,2.83
2023-04-23T12:09:28.107Z,2.93
2023-04-23T12:11:57.105Z,2.60
2023-04-23T12:14:30.236Z,2.20
2023-04-23T12:16:59.015Z,1.70
2023-04-23T12:19:28.640Z,2.07
2023-04-23T12:22:03.245Z,2.00
2023-04-23T12:24:44.938Z,1.87
2023-04-23T12:27:16.179Z,3.13
2023-04-23T12:29:43.606Z,2.00
2023-04-23T12:32:12.217Z,2.37
2023-04-23T12:34:53.350Z,1.97
2023-04-23T12:37:31.196Z,1.40
2023-04-23T12:39:59.816Z,2.70
2023-04-23T12:42:27.282Z,1.93
2023-04-23T12:44:56.570Z,2.50
2023-04-23T12:47:23.650Z,3.10
2023-04-23T12:49:54.100Z,2.23
2023-04-23T12:52:21.310Z,2.07
2023-04-23T12:54:52.362Z,1.93
2023-04-23T12:57:23.554Z,1.77
2023-04-23T12:59:51.013Z,2.07
2023-04-23T13:02:18.234Z,2.13
2023-04-23T13:04:45.232Z,1.60
2023-04-23T13:07:12.206Z,2.17
2023-04-23T13:09:39.201Z,2.03
2023-04-23T13:12:06.360Z,2.30
2023-04-23T13:14:33.430Z,2.27
2023-04-23T13:17:00.512Z,2.17
2023-04-23T13:19:27.608Z,2.60
2023-04-23T13:21:54.676Z,2.03
2023-04-23T13:24:21.722Z,2.60
2023-04-23T13:27:09.079Z,3.03
2023-04-23T13:29:36.125Z,3.30
2023-04-23T13:32:03.473Z,4.83
2023-04-23T13:34:31.070Z,1.70
2023-04-23T13:36:58.761Z,2.33
2023-04-23T13:39:25.846Z,1.97
2023-04-23T13:42:06.245Z,1.73
2023-04-23T13:44:35.698Z,1.77
2023-04-23T13:47:02.899Z,2.83
2023-04-23T13:49:29.851Z,1.47
2023-04-23T13:52:01.232Z,1.80
2023-04-23T13:54:28.230Z,1.93
2023-04-23T13:56:57.891Z,1.80
2023-04-23T13:59:26.112Z,2.80
2023-04-23T14:01:53.266Z,2.07
2023-04-23T14:04:24.391Z,5.00
2023-04-23T14:06:51.464Z,1.87
2023-04-23T14:09:19.254Z,1.70
2023-04-23T14:11:46.247Z,1.50
2023-04-23T14:14:13.189Z,2.10
2023-04-23T14:16:40.070Z,2.10
2023-04-23T14:19:07.170Z,1.80
2023-04-23T14:21:36.000Z,2.00
2023-04-23T14:24:12.865Z,2.50
2023-04-23T14:29:29.371Z,1.67
2023-04-23T14:31:56.639Z,1.90
2023-04-23T14:34:23.609Z,1.80
2023-04-23T14:36:53.252Z,1.93
2023-04-23T14:39:22.842Z,2.07
2023-04-23T14:41:49.772Z,2.63
2023-04-23T14:44:16.617Z,1.67
2023-04-23T14:46:43.744Z,2.77
2023-04-23T14:49:11.164Z,1.67
2023-04-23T14:51:38.436Z,1.93
2023-04-23T14:54:05.571Z,1.77
2023-04-23T14:56:32.491Z,1.50
2023-04-23T14:58:59.357Z,1.80
2023-04-23T15:01:27.147Z,1.63
2023-04-23T15:03:54.356Z,3.27
2023-04-23T15:06:21.528Z,2.43
2023-04-23T15:08:49.002Z,1.63
2023-04-23T15:11:16.108Z,1.60
2023-04-23T15:14:23.627Z,3.13
2023-04-23T15:16:50.677Z,2.00
2023-04-23T15:19:19.109Z,1.80
2023-04-23T15:21:47.342Z,1.60
2023-04-23T15:24:15.749Z,1.50
2023-04-23T15:26:43.543Z,1.80
2023-04-23T15:29:10.765Z,3.37
2023-04-23T15:31:38.417Z,1.70
2023-04-23T15:34:07.586Z,2.00
2023-04-23T15:36:35.887Z,2.30
2023-04-23T15:39:02.891Z,1.90
2023-04-23T15:41:29.826Z,2.17
2023-04-23T15:43:56.930Z,1.93
2023-04-23T15:46:23.830Z,3.23
2023-04-23T15:48:50.768Z,2.00
2023-04-23T15:51:18.008Z,2.47
2023-04-23T15:53:44.964Z,2.40
2023-04-23T15:56:11.942Z,2.60
2023-04-23T15:58:38.970Z,2.53
2023-04-23T16:01:07.544Z,2.27
2023-04-23T16:03:34.965Z,2.90
2023-04-23T16:06:02.191Z,1.97
2023-04-23T16:08:29.334Z,3.37
2023-04-23T16:10:58.336Z,2.30
2023-04-23T16:13:25.527Z,3.63
2023-04-23T16:15:53.268Z,1.50
2023-04-23T16:18:20.260Z,1.80
2023-04-23T16:20:50.060Z,2.30
2023-04-23T16:23:17.164Z,2.27
2023-04-23T16:25:44.834Z,2.07
2023-04-23T16:28:14.079Z,2.20
2023-04-23T16:30:41.114Z,2.03
2023-04-23T16:33:09.701Z,2.27
2023-04-23T16:35:36.780Z,2.57
2023-04-23T16:38:03.691Z,1.83
2023-04-23T16:40:30.576Z,2.77
2023-04-23T16:42:57.493Z,2.83
2023-04-23T16:45:24.495Z,2.13
2023-04-23T16:47:51.362Z,3.77
2023-04-23T16:50:18.359Z,1.87
2023-04-23T16:52:45.205Z,2.67
2023-04-23T16:55:12.099Z,2.90
2023-04-23T16:57:39.109Z,2.40
2023-04-23T17:00:06.823Z,1.93
2023-04-23T17:02:34.745Z,2.30
2023-04-23T17:05:02.077Z,2.00
2023-04-23T17:07:29.401Z,2.50
2023-04-23T17:09:56.303Z,2.30
2023-04-23T17:12:23.277Z,2.17
2023-04-23T17:14:50.187Z,3.83
2023-04-23T17:17:17.053Z,3.00
2023-04-23T17:19:45.886Z,2.37
2023-04-23T17:22:12.855Z,3.30
2023-04-23T17:24:39.875Z,2.47
2023-04-23T17:27:06.768Z,2.50
2023-04-23T17:29:33.633Z,2.53
2023-04-23T17:32:01.452Z,2.00
2023-04-23T17:34:28.507Z,1.90
2023-04-23T17:36:56.183Z,2.13
2023-04-23T17:39:23.969Z,2.63
2023-04-23T17:41:50.906Z,2.43
2023-04-23T17:44:17.915Z,2.70
2023-04-23T17:46:44.758Z,2.33
2023-04-23T17:49:11.643Z,3.47
2023-04-23T17:51:38.647Z,2.73
2023-04-23T17:54:06.212Z,2.73
2023-04-23T17:56:33.121Z,3.10
2023-04-23T17:59:00.075Z,3.10
2023-04-23T18:01:27.247Z,2.80
2023-04-23T18:03:54.326Z,2.57
2023-04-23T18:06:22.868Z,2.73
2023-04-23T18:08:49.825Z,2.23
2023-04-23T18:11:16.876Z,2.50
2023-04-23T18:13:44.121Z,2.87
2023-04-23T18:16:11.268Z,2.63
2023-04-23T18:18:38.208Z,2.57
2023-04-23T18:21:05.311Z,2.77
2023-04-23T18:23:32.376Z,2.63
2023-04-23T18:26:01.800Z,3.10
2023-04-23T18:28:29.286Z,3.47
2023-04-23T18:31:02.672Z,2.93
2023-04-23T18:34:03.016Z,3.70
2023-04-23T18:36:36.602Z,3.60
2023-04-23T18:39:04.189Z,3.00
2023-04-23T18:41:31.368Z,4.87
2023-04-23T18:44:00.410Z,4.67
2023-04-23T18:46:30.386Z,6.57
2023-04-23T18:49:06.979Z,5.20
2023-04-23T18:51:43.022Z,5.73
2023-04-23T18:54:10.009Z,5.07
2023-04-23T18:56:36.944Z,5.67
2023-04-23T18:59:03.913Z,4.97
2023-04-23T19:01:31.339Z,3.90
2023-04-23T19:03:59.110Z,4.23
2023-04-23T19:06:26.962Z,3.20
2023-04-23T19:08:54.416Z,3.10
2023-04-23T19:11:21.849Z,3.77
2023-04-23T19:13:48.792Z,3.50
2023-04-23T19:16:18.577Z,4.07
2023-04-23T19:18:46.245Z,3.53
2023-04-23T19:21:13.387Z,2.80
2023-04-23T19:23:40.512Z,3.60
2023-04-23T19:26:07.626Z,3.07
2023-04-23T19:28:37.668Z,4.07
2023-04-23T19:31:07.971Z,3.20
2023-04-23T19:33:35.146Z,4.20
2023-04-23T19:36:02.085Z,3.40
2023-04-23T19:38:29.057Z,3.83
2023-04-23T19:40:57.117Z,3.60
2023-04-23T19:43:24.084Z,4.37
2023-04-23T19:45:51.055Z,3.83
2023-04-23T19:48:17.955Z,3.67
2023-04-23T19:50:44.970Z,4.20
2023-04-23T19:53:11.903Z,5.53
2023-04-23T19:55:38.930Z,6.43
2023-04-23T19:58:08.561Z,4.40
2023-04-23T20:00:39.271Z,3.60
2023-04-23T20:03:07.871Z,3.77
2023-04-23T20:05:35.151Z,3.63
2023-04-23T20:08:04.590Z,3.07
2023-04-23T20:10:32.038Z,3.97
2023-04-23T20:13:00.001Z,4.67
2023-04-23T20:15:26.969Z,3.67
2023-04-23T20:17:55.032Z,3.57
2023-04-23T20:20:22.115Z,2.07
2023-04-23T20:22:49.093Z,5.83
2023-04-23T20:25:16.065Z,1.77
2023-04-23T20:27:43.092Z,3.13
2023-04-23T20:30:11.533Z,1.73
2023-04-23T20:32:38.499Z,1.83
2023-04-23T20:35:06.196Z,1.87
2023-04-23T20:37:35.496Z,1.73
2023-04-23T20:40:02.456Z,1.67
2023-04-23T20:42:29.440Z,1.30
2023-04-23T20:44:56.389Z,2.27
2023-04-23T20:47:24.020Z,1.17
2023-04-23T20:49:51.189Z,2.40
2023-04-23T20:52:18.131Z,1.53
2023-04-23T20:54:45.610Z,2.10
2023-04-23T20:57:12.604Z,3.03
2023-04-23T20:59:39.821Z,2.30
2023-04-23T21:02:07.769Z,1.70
2023-04-23T21:04:34.830Z,3.10
2023-04-23T21:07:01.953Z,3.70
2023-04-23T21:09:28.883Z,1.33
2023-04-23T21:11:57.212Z,18.60
2023-04-23T21:14:24.263Z,8.90
2023-04-23T21:16:51.403Z,2.10
2023-04-23T21:19:18.383Z,3.00
2023-04-23T21:21:45.324Z,5.20
2023-04-23T21:24:12.287Z,3.30
2023-04-23T21:26:39.442Z,3.93
2023-04-23T21:29:06.406Z,2.30
2023-04-23T21:31:45.490Z,1.73
2023-04-23T21:34:12.689Z,1.43
2023-04-23T21:36:39.669Z,1.70
2023-04-23T21:39:08.249Z,3.03
2023-04-23T21:41:36.197Z,2.83
2023-04-23T21:44:03.252Z,2.83
2023-04-23T21:46:32.299Z,2.03
2023-04-23T21:48:59.456Z,2.87
2023-04-23T21:51:26.395Z,3.00
2023-04-23T21:53:53.259Z,6.90
2023-04-23T21:56:21.536Z,4.57
2023-04-23T21:58:48.437Z,1.80
2023-04-23T22:01:15.376Z,1.70
2023-04-23T22:03:46.860Z,1.77
2023-04-23T22:06:16.114Z,3.37
2023-04-23T22:08:44.892Z,3.20
2023-04-23T22:11:13.273Z,2.13
2023-04-23T22:13:40.679Z,1.60
2023-04-23T22:16:20.280Z,2.80
2023-04-23T22:18:54.268Z,1.70
2023-04-23T22:21:21.276Z,1.53
2023-04-23T22:23:48.239Z,1.70
2023-04-23T22:26:15.123Z,1.97
2023-04-23T22:28:43.361Z,2.10
2023-04-23T22:31:10.559Z,2.87
2023-04-23T22:33:37.877Z,1.93
2023-04-23T22:36:05.689Z,1.87
2023-04-23T22:38:32.983Z,1.73
2023-04-23T22:40:59.895Z,2.80
2023-04-23T22:43:26.836Z,2.00
2023-04-23T22:45:53.853Z,4.83
2023-04-23T22:48:21.518Z,2.00
2023-04-23T22:50:51.268Z,4.80
2023-04-23T22:53:19.756Z,3.00
2023-04-23T22:55:47.415Z,1.97
2023-04-23T22:58:14.589Z,2.30
2023-04-23T23:00:41.884Z,3.83
2023-04-23T23:03:08.845Z,3.50
2023-04-23T23:05:36.028Z,2.10
2023-04-23T23:08:03.068Z,1.93
2023-04-23T23:10:30.324Z,1.80
2023-04-23T23:12:57.229Z,4.30
2023-04-23T23:15:24.088Z,1.80
2023-04-23T23:17:51.341Z,2.03
2023-04-23T23:20:40.700Z,2.40
2023-04-23T23:23:07.846Z,3.13
2023-04-23T23:25:38.468Z,2.43
2023-04-23T23:28:05.846Z,2.20
2023-04-23T23:30:32.932Z,2.70
2023-04-23T23:33:00.129Z,3.23
2023-04-23T23:35:27.113Z,2.10
2023-04-23T23:37:53.989Z,2.37
2023-04-23T23:40:21.222Z,3.73
2023-04-23T23:42:48.084Z,2.83
2023-04-23T23:45:15.063Z,2.33
2023-04-23T23:47:42.230Z,3.50
2023-04-23T23:50:09.581Z,2.77
2023-04-23T23:52:36.523Z,2.83
2023-04-23T23:55:03.703Z,2.67
2023-04-23T23:57:30.636Z,2.80
2023-04-23T23:59:57.574Z,2.27
